Weather at Finca Cuchuy Airport

Public forecast

Using degrees Celsius for public forecast. Weather courtesy of forecast.io.

Closest aviation weather report (METAR) to Finca Cuchuy Airport

Report is more than 6 hours old.

Closest report is General Enrique Mosconi Airport, 25.6 nm (47.3 km) N. Retrieved 2020/10/19 03:28 UTC (5 days ago):

SAST 190328Z 05018KT 6000 NSC 30/14 Q1005

Closest aviation forecast (TAF) to Finca Cuchuy Airport

Forecast is more than 12 hours old.

Closest forecast is Yacuiba Airport, 64.9 nm (120.2 km) N. Retrieved 2020/10/23 12:45 UTC (18 hours ago):

TAF SLYA 231000Z 2312/2412 00000KT 9999 SCT020 OVC070 TX37/2319Z TN20 /2410Z BECMG 2315/2317 09010KT FEW023 SCT070 BECMG 2401/2403 00000KT SCT017 BKN070 TEMPO 2403/2405 8000 SHRA SCT015 FEW030CB BKN070